createdAt,value
2023-04-12T00:01:13.788Z,3.55
2023-04-12T00:06:29.716Z,4.10
2023-04-12T00:11:32.739Z,3.15
2023-04-12T00:16:37.229Z,3.42
2023-04-12T00:26:43.519Z,3.13
2023-04-12T00:31:46.081Z,2.90
2023-04-12T00:36:50.489Z,4.05
2023-04-12T00:41:54.910Z,2.75
2023-04-12T00:46:58.515Z,3.40
2023-04-12T00:52:19.837Z,3.15
2023-04-12T00:57:23.515Z,3.92
2023-04-12T01:02:26.944Z,4.68
2023-04-12T01:08:15.643Z,4.07
2023-04-12T01:13:40.897Z,3.85
2023-04-12T01:18:49.680Z,2.80
2023-04-12T01:24:07.014Z,3.00
2023-04-12T01:29:16.223Z,2.55
2023-04-12T01:34:19.659Z,3.25
2023-04-12T01:39:23.013Z,3.40
2023-04-12T01:44:26.495Z,2.53
2023-04-12T01:49:36.157Z,3.05
2023-04-12T01:54:42.892Z,3.05
2023-04-12T01:59:57.181Z,3.20
2023-04-12T02:05:00.551Z,2.78
2023-04-12T02:10:04.040Z,2.78
2023-04-12T02:15:08.197Z,3.30
2023-04-12T02:20:12.082Z,3.30
2023-04-12T02:25:18.109Z,3.15
2023-04-12T02:30:23.926Z,3.28
2023-04-12T02:35:31.866Z,3.05
2023-04-12T02:40:43.876Z,3.05
2023-04-12T02:45:51.406Z,3.35
2023-04-12T02:50:54.499Z,2.85
2023-04-12T02:56:01.321Z,2.92
2023-04-12T03:01:09.072Z,3.10
2023-04-12T03:06:30.253Z,2.72
2023-04-12T03:11:34.101Z,2.88
2023-04-12T03:16:37.813Z,2.75
2023-04-12T03:21:47.725Z,2.83
2023-04-12T03:26:53.982Z,1.52
2023-04-12T03:32:01.444Z,2.78
2023-04-12T03:37:05.043Z,2.77
2023-04-12T03:42:31.687Z,2.85
2023-04-12T03:48:01.708Z,2.90
2023-04-12T03:53:07.311Z,2.38
2023-04-12T03:58:13.487Z,2.83
2023-04-12T04:03:20.530Z,2.55
2023-04-12T04:08:36.743Z,3.00
2023-04-12T04:18:44.831Z,2.80
2023-04-12T04:23:51.949Z,2.90
2023-04-12T04:28:55.433Z,3.00
2023-04-12T04:34:05.984Z,2.70
2023-04-12T04:39:11.968Z,2.92
2023-04-12T04:44:18.257Z,3.40
2023-04-12T04:49:32.113Z,3.27
2023-04-12T04:54:44.990Z,2.65
2023-04-12T04:59:47.795Z,2.90
2023-04-12T05:04:57.484Z,2.38
2023-04-12T05:10:04.109Z,3.05
2023-04-12T05:15:12.210Z,3.13
2023-04-12T05:20:17.750Z,2.60
2023-04-12T05:25:21.181Z,2.72
2023-04-12T05:30:40.192Z,3.25
2023-04-12T05:35:44.816Z,3.08
2023-04-12T05:40:50.057Z,2.70
2023-04-12T05:45:59.534Z,3.50
2023-04-12T05:51:03.033Z,2.72
2023-04-12T05:56:07.045Z,2.88
2023-04-12T06:01:10.868Z,2.13
2023-04-12T06:06:15.530Z,3.28
2023-04-12T06:11:19.094Z,4.17
2023-04-12T06:16:21.783Z,3.40
2023-04-12T06:21:25.484Z,2.25
2023-04-12T06:26:37.277Z,4.10
2023-04-12T06:31:42.615Z,3.65
2023-04-12T06:36:47.706Z,2.97
2023-04-12T06:41:51.066Z,3.70
2023-04-12T06:46:56.647Z,3.58
2023-04-12T06:51:59.458Z,3.13
2023-04-12T06:57:02.194Z,3.58
2023-04-12T07:02:05.295Z,3.08
2023-04-12T07:07:08.462Z,4.15
2023-04-12T07:12:10.975Z,3.65
2023-04-12T07:17:13.580Z,4.15
2023-04-12T07:22:17.344Z,4.90
2023-04-12T07:27:20.056Z,3.55
2023-04-12T07:32:24.069Z,3.40
2023-04-12T07:37:27.229Z,6.00
2023-04-12T07:42:29.809Z,5.28
2023-04-12T07:47:32.985Z,4.97
2023-04-12T07:52:36.348Z,5.45
2023-04-12T07:57:38.888Z,4.95
2023-04-12T08:02:41.539Z,5.88
2023-04-12T08:07:45.789Z,5.22
2023-04-12T08:12:48.374Z,5.25
2023-04-12T08:17:51.184Z,5.88
2023-04-12T08:22:54.661Z,5.93
2023-04-12T08:27:57.730Z,6.75
2023-04-12T08:33:01.291Z,7.10
2023-04-12T08:38:07.784Z,6.60
2023-04-12T08:43:12.650Z,8.40
2023-04-12T08:48:16.461Z,10.57
2023-04-12T08:53:19.071Z,6.70
2023-04-12T08:58:22.219Z,8.45
2023-04-12T09:03:25.509Z,7.35
2023-04-12T09:08:29.364Z,6.57
2023-04-12T09:13:34.631Z,7.03
2023-04-12T09:18:48.899Z,5.53
2023-04-12T09:24:14.570Z,6.97
2023-04-12T09:29:24.736Z,7.80
2023-04-12T09:34:28.140Z,6.60
2023-04-12T09:39:34.629Z,5.72
2023-04-12T09:44:38.089Z,6.40
2023-04-12T09:49:42.627Z,5.47
2023-04-12T09:55:09.810Z,6.47
2023-04-12T10:00:18.076Z,5.40
2023-04-12T10:05:23.681Z,5.47
2023-04-12T10:10:27.601Z,4.45
2023-04-12T10:15:30.572Z,5.20
2023-04-12T10:20:41.586Z,4.82
2023-04-12T10:25:48.577Z,4.25
2023-04-12T10:30:53.309Z,4.25
2023-04-12T10:36:12.986Z,3.88
2023-04-12T10:41:24.565Z,5.00
2023-04-12T10:46:39.880Z,4.45
2023-04-12T10:52:01.457Z,4.50
2023-04-12T10:57:05.027Z,3.25
2023-04-12T11:02:17.339Z,3.95
2023-04-12T11:07:40.834Z,4.90
2023-04-12T11:13:09.095Z,3.80
2023-04-12T11:18:12.016Z,5.18
2023-04-12T11:23:15.360Z,3.97
2023-04-12T11:28:28.454Z,4.68
2023-04-12T11:38:41.204Z,4.28
2023-04-12T11:43:44.658Z,4.13
2023-04-12T11:48:47.829Z,4.03
2023-04-12T11:53:54.736Z,3.40
2023-04-12T11:58:58.746Z,5.28
2023-04-12T12:04:03.151Z,4.15
2023-04-12T12:09:07.508Z,4.13
2023-04-12T12:14:10.580Z,4.85
2023-04-12T12:19:13.698Z,3.75
2023-04-12T12:24:17.093Z,3.90
2023-04-12T12:29:19.945Z,3.10
2023-04-12T12:34:24.467Z,2.75
2023-04-12T12:39:28.199Z,3.47
2023-04-12T12:44:30.898Z,3.65
2023-04-12T12:49:33.488Z,2.75
2023-04-12T12:54:41.455Z,2.95
2023-04-12T12:59:44.656Z,3.28
2023-04-12T13:04:55.843Z,2.30
2023-04-12T13:09:59.248Z,2.75
2023-04-12T13:15:17.381Z,2.47
2023-04-12T13:20:24.664Z,1.90
2023-04-12T13:25:27.965Z,1.98
2023-04-12T13:30:32.422Z,2.13
2023-04-12T13:35:37.364Z,1.70
2023-04-12T13:40:40.049Z,2.33
2023-04-12T13:45:42.640Z,1.90
2023-04-12T13:50:50.171Z,2.15
2023-04-12T13:55:53.419Z,1.80
2023-04-12T14:00:58.677Z,2.47
2023-04-12T14:06:01.377Z,2.25
2023-04-12T14:11:04.291Z,2.03
2023-04-12T14:16:08.508Z,1.80
2023-04-12T14:21:12.758Z,1.70
2023-04-12T14:26:20.912Z,1.70
2023-04-12T14:31:23.688Z,1.63
2023-04-12T14:36:27.595Z,1.88
2023-04-12T14:41:31.226Z,1.48
2023-04-12T14:46:52.277Z,1.30
2023-04-12T14:51:55.195Z,1.67
2023-04-12T14:57:00.057Z,1.90
2023-04-12T15:02:02.805Z,1.63
2023-04-12T15:07:05.789Z,2.03
2023-04-12T15:12:08.445Z,1.75
2023-04-12T15:17:11.398Z,1.48
2023-04-12T15:22:15.358Z,1.70
2023-04-12T15:27:18.006Z,1.52
2023-04-12T15:32:20.894Z,2.03
2023-04-12T15:37:24.796Z,1.95
2023-04-12T15:42:28.746Z,1.58
2023-04-12T15:47:32.188Z,1.60
2023-04-12T15:52:37.025Z,1.75
2023-04-12T15:57:41.004Z,2.20
2023-04-12T16:02:53.531Z,1.63
2023-04-12T16:07:56.737Z,1.90
2023-04-12T16:12:59.421Z,2.45
2023-04-12T16:18:02.236Z,1.65
2023-04-12T16:23:06.589Z,1.67
2023-04-12T16:33:11.939Z,1.70
2023-04-12T16:38:16.531Z,1.70
2023-04-12T16:43:20.299Z,2.00
2023-04-12T16:48:22.964Z,1.60
2023-04-12T16:53:26.931Z,1.90
2023-04-12T16:58:29.716Z,2.17
2023-04-12T17:03:34.944Z,2.03
2023-04-12T17:08:38.034Z,1.85
2023-04-12T17:13:40.802Z,1.83
2023-04-12T17:18:43.633Z,2.00
2023-04-12T17:23:48.749Z,3.17
2023-04-12T17:28:54.668Z,2.20
2023-04-12T17:33:57.776Z,2.03
2023-04-12T17:39:04.293Z,2.15
2023-04-12T17:44:07.845Z,2.20
2023-04-12T17:49:10.712Z,2.10
2023-04-12T17:54:14.175Z,2.60
2023-04-12T17:59:16.837Z,2.35
2023-04-12T18:04:19.938Z,2.25
2023-04-12T18:09:23.620Z,2.00
2023-04-12T18:14:26.174Z,2.00
2023-04-12T18:19:28.763Z,1.73
2023-04-12T18:24:31.629Z,1.95
2023-04-12T18:29:34.293Z,2.20
2023-04-12T18:34:36.908Z,2.22
2023-04-12T18:39:42.812Z,2.75
2023-04-12T18:44:46.493Z,2.78
2023-04-12T18:49:49.547Z,2.43
2023-04-12T18:54:52.200Z,2.53
2023-04-12T19:00:15.020Z,3.47
2023-04-12T19:05:19.612Z,3.47
2023-04-12T19:10:28.095Z,3.28
2023-04-12T19:15:30.991Z,3.30
2023-04-12T19:20:34.191Z,3.13
2023-04-12T19:25:55.450Z,3.60
2023-04-12T19:30:59.218Z,3.90
2023-04-12T19:36:05.033Z,3.80
2023-04-12T19:41:08.009Z,4.28
2023-04-12T19:46:11.987Z,3.55
2023-04-12T19:51:15.466Z,4.00
2023-04-12T19:56:19.298Z,4.40
2023-04-12T20:01:22.714Z,3.67
2023-04-12T20:11:31.719Z,4.25
2023-04-12T20:16:38.435Z,4.63
2023-04-12T20:21:41.485Z,4.95
2023-04-12T20:26:46.683Z,4.55
2023-04-12T20:31:53.618Z,4.65
2023-04-12T20:42:01.332Z,4.32
2023-04-12T20:47:04.459Z,4.25
2023-04-12T20:52:07.848Z,4.20
2023-04-12T20:57:13.009Z,4.15
2023-04-12T21:02:16.958Z,4.47
2023-04-12T21:07:22.430Z,4.18
2023-04-12T21:12:25.777Z,4.07
2023-04-12T21:17:29.925Z,3.75
2023-04-12T21:22:32.512Z,4.22
2023-04-12T21:27:35.233Z,3.38
2023-04-12T21:32:39.284Z,3.40
2023-04-12T21:37:41.927Z,3.58
2023-04-12T21:42:47.217Z,3.67
2023-04-12T21:47:49.890Z,3.58
2023-04-12T21:52:54.741Z,3.67
2023-04-12T21:57:58.961Z,3.15
2023-04-12T22:03:02.312Z,2.90
2023-04-12T22:08:08.500Z,2.80
2023-04-12T22:13:11.670Z,2.97
2023-04-12T22:18:14.206Z,2.25
2023-04-12T22:23:18.214Z,2.60
2023-04-12T22:28:22.281Z,2.10
2023-04-12T22:33:24.862Z,1.58
2023-04-12T22:38:50.451Z,1.67
2023-04-12T22:44:01.553Z,2.22
2023-04-12T22:49:28.432Z,2.15
2023-04-12T22:54:31.151Z,2.05
2023-04-12T22:59:34.922Z,2.22
2023-04-12T23:04:37.747Z,2.17
2023-04-12T23:09:41.630Z,1.63
2023-04-12T23:14:45.002Z,1.90
2023-04-12T23:19:47.737Z,1.60
2023-04-12T23:24:52.860Z,1.55
2023-04-12T23:29:55.581Z,2.00
2023-04-12T23:35:04.382Z,2.38
2023-04-12T23:40:15.753Z,1.33
2023-04-12T23:45:19.199Z,2.00
2023-04-12T23:50:22.992Z,2.30
2023-04-12T23:55:27.201Z,1.73
